Time;durP1;ratioP1;P1;durP2;ratioP2;P2;SDS_P1;SDS_P2;PMS_P1;PMS_P2;Temp;Humidity;BMP_temperature;BMP_pressure;BME280_temperature;BME280_humidity;BME280_pressure;Samples;Min_cycle;Max_cycle;Signal;HPM_P1;HPM_P2
2024/01/30 00:02:21;;;;;;;26.47;21.77;;;5.80;96.60;;;;;;5079627;28;20926;-76
2024/01/30 00:04:47;;;;;;;29.67;22.55;;;5.80;96.70;;;;;;5081490;28;20456;-77
2024/01/30 00:07:13;;;;;;;27.23;22.60;;;5.80;96.90;;;;;;5078890;28;20415;-77
2024/01/30 00:09:41;;;;;;;27.27;22.55;;;5.80;97.00;;;;;;5081527;28;20477;-77
2024/01/30 00:12:07;;;;;;;27.05;22.50;;;5.80;97.00;;;;;;5079814;28;20402;-76
2024/01/30 00:14:33;;;;;;;26.57;22.10;;;5.80;97.00;;;;;;5081223;28;20405;-77
2024/01/30 00:16:58;;;;;;;28.13;21.83;;;5.80;96.80;;;;;;5079274;28;20414;-76
2024/01/30 00:19:24;;;;;;;26.60;21.80;;;5.80;96.70;;;;;;5080473;28;20496;-76
2024/01/30 00:21:49;;;;;;;27.05;22.33;;;5.70;96.50;;;;;;5078394;28;20454;-77
2024/01/30 00:24:15;;;;;;;27.90;22.67;;;5.70;96.50;;;;;;5062369;28;20413;-77
2024/01/30 00:26:40;;;;;;;28.73;22.67;;;5.70;96.60;;;;;;5078469;28;20404;-77
2024/01/30 00:29:06;;;;;;;28.30;23.10;;;5.70;96.60;;;;;;5073059;28;20395;-76
2024/01/30 00:31:32;;;;;;;27.60;22.00;;;5.70;96.80;;;;;;5077868;28;20400;-76
2024/01/30 00:33:57;;;;;;;29.23;23.10;;;5.70;96.80;;;;;;5079946;28;20814;-77
2024/01/30 00:36:23;;;;;;;27.10;22.30;;;5.60;96.80;;;;;;5076529;28;20415;-76
2024/01/30 00:38:48;;;;;;;26.38;22.20;;;5.70;96.60;;;;;;5080474;28;20425;-77
2024/01/30 00:41:14;;;;;;;29.60;23.40;;;5.60;96.40;;;;;;5071744;28;20423;-77
2024/01/30 00:43:40;;;;;;;29.83;23.60;;;5.50;96.40;;;;;;5077195;28;20390;-77
2024/01/30 00:46:05;;;;;;;27.10;22.80;;;5.50;96.60;;;;;;5080623;28;20406;-77
2024/01/30 00:48:31;;;;;;;28.57;22.93;;;5.50;96.70;;;;;;5082479;28;20394;-77
2024/01/30 00:50:56;;;;;;;29.42;23.58;;;5.50;96.80;;;;;;5079267;28;20411;-77
2024/01/30 00:53:22;;;;;;;29.00;23.67;;;5.50;96.90;;;;;;5081635;28;20899;-76
2024/01/30 00:55:48;;;;;;;29.90;24.48;;;5.50;97.00;;;;;;5078384;28;20399;-76
2024/01/30 00:58:13;;;;;;;30.27;24.23;;;5.50;97.00;;;;;;5080964;28;20410;-77
2024/01/30 01:00:39;;;;;;;29.88;24.40;;;5.50;97.20;;;;;;5077620;28;20431;-76
2024/01/30 01:03:05;;;;;;;33.17;23.55;;;5.50;97.20;;;;;;5082120;28;20411;-76
2024/01/30 01:05:30;;;;;;;31.43;24.80;;;5.40;97.00;;;;;;5077108;28;20404;-77
2024/01/30 01:07:56;;;;;;;30.13;24.02;;;5.40;97.00;;;;;;5080844;28;20390;-76
2024/01/30 01:10:22;;;;;;;29.65;24.48;;;5.40;97.40;;;;;;5074917;28;20404;-76
2024/01/30 01:12:48;;;;;;;29.85;23.42;;;5.30;97.00;;;;;;5074099;28;20396;-76
2024/01/30 01:15:14;;;;;;;30.87;24.60;;;5.30;97.10;;;;;;5075742;28;20410;-76
2024/01/30 01:17:40;;;;;;;32.03;25.57;;;5.30;97.50;;;;;;5080593;28;20741;-76
2024/01/30 01:20:06;;;;;;;31.95;23.98;;;5.30;97.80;;;;;;5075174;28;20481;-76
2024/01/30 01:22:32;;;;;;;31.20;24.23;;;5.40;98.00;;;;;;5074167;28;20957;-76
2024/01/30 01:24:58;;;;;;;31.40;25.88;;;5.40;97.90;;;;;;5064375;28;20839;-76
2024/01/30 01:27:24;;;;;;;37.45;27.52;;;5.40;98.10;;;;;;5071066;28;20440;-76
2024/01/30 01:29:50;;;;;;;39.15;30.70;;;5.40;98.10;;;;;;5068193;28;20399;-76
2024/01/30 01:32:16;;;;;;;42.75;32.72;;;5.40;98.40;;;;;;5075330;28;20935;-76
2024/01/30 01:34:41;;;;;;;47.23;34.37;;;5.40;98.40;;;;;;5079168;28;20430;-76
2024/01/30 01:37:07;;;;;;;44.83;33.90;;;5.40;98.60;;;;;;5085455;28;20903;-77
2024/01/30 01:39:33;;;;;;;41.60;31.52;;;5.50;98.90;;;;;;5086204;28;20458;-76
2024/01/30 01:41:58;;;;;;;36.43;28.77;;;5.40;98.50;;;;;;5059111;28;20414;-76
2024/01/30 01:44:24;;;;;;;38.00;28.33;;;5.50;98.80;;;;;;5086536;28;20839;-76
2024/01/30 01:46:51;;;;;;;35.90;27.47;;;5.50;98.70;;;;;;5065247;28;20516;-76
2024/01/30 01:49:16;;;;;;;35.13;27.52;;;5.50;99.00;;;;;;5067662;28;20431;-76
2024/01/30 01:51:44;;;;;;;35.78;26.95;;;5.50;99.00;;;;;;5080929;28;20832;-76
2024/01/30 01:54:11;;;;;;;31.90;25.58;;;5.50;98.80;;;;;;5085127;28;20737;-76
2024/01/30 01:56:38;;;;;;;34.78;25.48;;;5.50;98.70;;;;;;5083751;28;20453;-76
2024/01/30 01:59:07;;;;;;;32.25;25.38;;;5.50;98.70;;;;;;5059212;28;20443;-76
2024/01/30 02:01:34;;;;;;;37.15;25.60;;;5.50;98.70;;;;;;5087033;28;20394;-76
2024/01/30 02:04:00;;;;;;;31.63;25.15;;;5.50;98.70;;;;;;5085290;28;20444;-76
2024/01/30 02:06:27;;;;;;;32.00;24.58;;;5.40;98.70;;;;;;5076890;28;20395;-76
2024/01/30 02:08:52;;;;;;;31.75;24.15;;;5.40;98.60;;;;;;5070755;28;20477;-76
2024/01/30 02:11:19;;;;;;;31.60;24.33;;;5.40;98.70;;;;;;5086107;28;20887;-76
2024/01/30 02:13:45;;;;;;;33.78;24.58;;;5.40;98.70;;;;;;5085199;28;20429;-76
2024/01/30 02:16:10;;;;;;;30.57;23.97;;;5.30;98.70;;;;;;5085504;28;20436;-76
2024/01/30 02:18:41;;;;;;;29.92;23.42;;;5.30;98.60;;;;;;5084284;28;20451;-77
2024/01/30 02:21:07;;;;;;;31.80;24.27;;;5.30;98.60;;;;;;5086843;28;20450;-76
2024/01/30 02:23:33;;;;;;;29.23;23.70;;;5.30;98.70;;;;;;5085391;28;20478;-76
2024/01/30 02:25:59;;;;;;;30.77;23.88;;;5.20;98.70;;;;;;5086318;28;20399;-76
2024/01/30 02:28:25;;;;;;;32.53;24.20;;;5.20;98.80;;;;;;5084583;28;20884;-76
2024/01/30 02:30:50;;;;;;;32.92;24.17;;;5.20;98.90;;;;;;5086881;28;20394;-76
2024/01/30 02:33:16;;;;;;;32.37;24.10;;;5.30;99.10;;;;;;5072622;28;20507;-76
2024/01/30 02:35:41;;;;;;;30.53;23.70;;;5.30;99.00;;;;;;5086089;28;20394;-76
2024/01/30 02:38:07;;;;;;;30.27;23.00;;;5.30;99.10;;;;;;5084309;28;20404;-76
2024/01/30 02:40:32;;;;;;;29.30;24.07;;;5.30;99.20;;;;;;5085688;28;20848;-76
2024/01/30 02:42:59;;;;;;;31.92;23.98;;;5.30;99.30;;;;;;5070709;28;20408;-76
2024/01/30 02:45:25;;;;;;;31.43;24.83;;;5.30;99.40;;;;;;5085775;28;20806;-76
2024/01/30 02:47:51;;;;;;;34.37;25.77;;;5.40;99.60;;;;;;5083560;28;20407;-76
2024/01/30 02:50:16;;;;;;;30.80;24.00;;;5.40;99.80;;;;;;5084614;28;20505;-76
2024/01/30 02:52:45;;;;;;;30.60;24.15;;;5.40;99.80;;;;;;5082071;28;20403;-76
2024/01/30 02:55:11;;;;;;;32.50;23.77;;;5.40;99.90;;;;;;5084298;28;20390;-76
2024/01/30 02:57:40;;;;;;;32.22;23.67;;;5.40;99.80;;;;;;5082024;28;20770;-76
2024/01/30 03:00:09;;;;;;;29.67;22.83;;;5.40;99.90;;;;;;5084603;28;20533;-77
2024/01/30 03:02:35;;;;;;;30.98;23.75;;;5.40;99.90;;;;;;5063920;28;20410;-76
2024/01/30 03:05:00;;;;;;;31.20;24.30;;;5.50;99.90;;;;;;5084266;28;20398;-77
2024/01/30 03:07:26;;;;;;;31.40;24.55;;;5.50;99.90;;;;;;5080897;28;20827;-76
2024/01/30 03:09:52;;;;;;;32.23;24.43;;;5.50;99.90;;;;;;5080706;28;20787;-76
2024/01/30 03:12:18;;;;;;;31.43;24.27;;;5.50;99.90;;;;;;5082612;28;20407;-76
2024/01/30 03:14:43;;;;;;;30.40;24.20;;;5.50;99.90;;;;;;5079428;28;20398;-76
2024/01/30 03:17:09;;;;;;;32.08;25.08;;;5.50;99.90;;;;;;5084553;28;20427;-77
2024/01/30 03:19:34;;;;;;;35.33;25.33;;;5.50;99.90;;;;;;5078742;28;20415;-77
2024/01/30 03:22:00;;;;;;;30.08;24.33;;;5.50;99.90;;;;;;5082077;28;21548;-77
2024/01/30 03:24:26;;;;;;;32.40;24.40;;;5.50;99.90;;;;;;5087602;28;20406;-76
2024/01/30 03:26:51;;;;;;;37.00;24.93;;;5.50;99.90;;;;;;5085116;28;20403;-77
2024/01/30 03:29:17;;;;;;;31.75;24.15;;;5.60;99.90;;;;;;5087743;28;20406;-76
2024/01/30 03:31:42;;;;;;;33.37;24.90;;;5.60;99.90;;;;;;5081154;28;20414;-77
2024/01/30 03:34:08;;;;;;;31.80;24.80;;;5.60;99.90;;;;;;5080715;28;20409;-77
2024/01/30 03:36:34;;;;;;;31.77;23.75;;;5.60;99.90;;;;;;5075603;28;20394;-77
2024/01/30 03:39:00;;;;;;;30.15;24.02;;;5.60;99.90;;;;;;5088931;28;20479;-77
2024/01/30 03:41:26;;;;;;;28.10;22.27;;;5.60;99.90;;;;;;5084392;28;20410;-77
2024/01/30 03:43:52;;;;;;;30.23;22.95;;;5.60;99.90;;;;;;5080730;28;20385;-77
2024/01/30 03:46:17;;;;;;;28.43;22.87;;;5.60;99.90;;;;;;5087929;28;20394;-76
2024/01/30 03:48:44;;;;;;;28.97;22.60;;;5.60;99.90;;;;;;5089660;28;20900;-77
2024/01/30 03:51:14;;;;;;;30.30;23.60;;;5.70;99.90;;;;;;5086344;28;20406;-77
2024/01/30 03:53:41;;;;;;;29.52;23.33;;;5.70;99.90;;;;;;5088611;28;20459;-76
2024/01/30 03:56:06;;;;;;;30.67;22.70;;;5.70;99.90;;;;;;5086555;28;20398;-76
2024/01/30 03:58:32;;;;;;;29.23;22.88;;;5.70;99.90;;;;;;5088251;28;20413;-76
2024/01/30 04:00:58;;;;;;;30.40;24.05;;;5.70;99.90;;;;;;5086059;28;20491;-77
2024/01/30 04:03:23;;;;;;;28.30;23.00;;;5.70;99.90;;;;;;5087125;28;20414;-76
2024/01/30 04:05:49;;;;;;;30.75;23.52;;;5.80;99.90;;;;;;5086539;28;20405;-77
2024/01/30 04:08:14;;;;;;;31.10;23.53;;;5.80;99.90;;;;;;5087429;28;20464;-77
2024/01/30 04:10:40;;;;;;;28.17;23.77;;;5.80;99.90;;;;;;5084749;28;21203;-76
2024/01/30 04:13:06;;;;;;;29.52;23.52;;;5.80;99.90;;;;;;5087207;28;20394;-76
2024/01/30 04:15:32;;;;;;;30.80;23.67;;;5.80;99.90;;;;;;5083543;28;20414;-77
2024/01/30 04:17:59;;;;;;;28.73;23.45;;;5.80;99.90;;;;;;5085855;28;20934;-76
2024/01/30 04:20:25;;;;;;;27.15;22.90;;;5.80;99.90;;;;;;5084594;28;20426;-77
2024/01/30 04:22:51;;;;;;;28.27;22.60;;;5.80;99.90;;;;;;5077654;28;20751;-77
2024/01/30 04:25:16;;;;;;;28.02;22.13;;;5.80;99.90;;;;;;5083496;28;20409;-77
2024/01/30 04:27:42;;;;;;;26.77;21.73;;;5.90;99.90;;;;;;5087676;28;20409;-76
2024/01/30 04:30:08;;;;;;;27.73;22.10;;;5.90;99.90;;;;;;5084789;28;20403;-77
2024/01/30 04:32:35;;;;;;;28.13;22.23;;;5.90;99.90;;;;;;5077366;28;20407;-76
2024/01/30 04:35:00;;;;;;;28.63;21.65;;;5.90;99.90;;;;;;5086418;28;20481;-77
2024/01/30 04:37:26;;;;;;;26.87;21.53;;;5.90;99.90;;;;;;5086164;28;21170;-76
2024/01/30 04:39:52;;;;;;;27.50;21.90;;;5.90;99.90;;;;;;5086337;28;20436;-77
2024/01/30 04:42:17;;;;;;;27.50;21.90;;;6.00;99.90;;;;;;5077114;28;20412;-77
2024/01/30 04:44:43;;;;;;;27.87;22.20;;;6.00;99.90;;;;;;5085058;28;20493;-77
2024/01/30 04:47:11;;;;;;;27.67;22.75;;;6.00;99.90;;;;;;5087385;28;20756;-76
2024/01/30 04:49:36;;;;;;;30.20;23.27;;;6.00;99.90;;;;;;5085687;28;20955;-76
2024/01/30 04:52:02;;;;;;;28.35;23.45;;;6.10;99.90;;;;;;5087684;28;20398;-77
2024/01/30 04:54:28;;;;;;;29.02;22.88;;;6.10;99.90;;;;;;5085725;28;20447;-76
2024/01/30 04:56:53;;;;;;;25.90;21.40;;;6.10;99.90;;;;;;5087825;28;20394;-77
2024/01/30 04:59:19;;;;;;;26.47;21.87;;;6.10;99.90;;;;;;5084630;28;20422;-77
2024/01/30 05:01:44;;;;;;;27.77;21.88;;;6.10;99.90;;;;;;5087352;28;20437;-77
2024/01/30 05:04:11;;;;;;;27.27;22.00;;;6.20;99.90;;;;;;5085784;28;20418;-77
2024/01/30 05:06:36;;;;;;;27.00;22.13;;;6.20;99.90;;;;;;5086764;28;20447;-76
2024/01/30 05:09:04;;;;;;;28.37;21.70;;;6.10;99.90;;;;;;5085291;28;20414;-77
2024/01/30 05:11:30;;;;;;;25.25;21.42;;;6.20;99.90;;;;;;5076113;28;20415;-77
2024/01/30 05:13:55;;;;;;;27.15;21.50;;;6.20;99.90;;;;;;5083218;28;20429;-76
2024/01/30 05:16:21;;;;;;;27.10;21.67;;;6.20;99.90;;;;;;5075761;28;20916;-76
2024/01/30 05:18:46;;;;;;;28.50;21.52;;;6.20;99.90;;;;;;5083073;28;20412;-77
2024/01/30 05:21:12;;;;;;;25.63;21.70;;;6.20;99.90;;;;;;5086466;28;20945;-77
2024/01/30 05:23:38;;;;;;;27.00;20.60;;;6.20;99.90;;;;;;5083691;28;20394;-76
2024/01/30 05:26:03;;;;;;;27.83;20.77;;;6.20;99.90;;;;;;5086151;28;20394;-77
2024/01/30 05:28:30;;;;;;;27.03;20.17;;;6.20;99.90;;;;;;5083512;28;20954;-77
2024/01/30 05:30:56;;;;;;;27.38;21.23;;;6.20;99.90;;;;;;5085523;28;20398;-77
2024/01/30 05:33:22;;;;;;;26.60;20.55;;;6.30;99.90;;;;;;5072349;28;21035;-77
2024/01/30 05:35:48;;;;;;;27.30;21.17;;;6.40;99.90;;;;;;5086465;28;20406;-76
2024/01/30 05:38:15;;;;;;;27.17;21.20;;;6.40;99.90;;;;;;5086412;28;20398;-77
2024/01/30 05:40:41;;;;;;;24.88;20.77;;;6.50;99.90;;;;;;5087383;28;20422;-77
2024/01/30 05:43:07;;;;;;;24.50;19.50;;;6.50;99.90;;;;;;5086223;28;20404;-76
2024/01/30 05:45:34;;;;;;;23.98;19.58;;;6.50;99.90;;;;;;5088079;28;20503;-77
2024/01/30 05:47:59;;;;;;;23.75;19.00;;;6.50;99.90;;;;;;5085684;28;20401;-76
2024/01/30 05:50:26;;;;;;;23.23;18.50;;;6.50;99.90;;;;;;5086147;28;20398;-76
2024/01/30 05:52:51;;;;;;;20.83;18.23;;;6.60;99.90;;;;;;5084175;28;20427;-76
2024/01/30 05:55:17;;;;;;;24.70;18.40;;;6.60;99.90;;;;;;5086917;28;20394;-76
2024/01/30 05:57:43;;;;;;;22.43;17.87;;;6.60;99.90;;;;;;5084269;28;20398;-76
2024/01/30 06:00:08;;;;;;;24.42;18.38;;;6.70;99.90;;;;;;5085816;28;20426;-76
2024/01/30 06:02:34;;;;;;;22.97;17.37;;;6.70;99.90;;;;;;5083471;28;20802;-77
2024/01/30 06:04:59;;;;;;;23.33;18.70;;;6.60;99.90;;;;;;5085779;28;20547;-76
2024/01/30 06:07:25;;;;;;;24.10;18.27;;;6.70;99.90;;;;;;5083647;28;20858;-77
2024/01/30 06:09:51;;;;;;;22.13;17.93;;;6.70;99.90;;;;;;5085933;28;20482;-77
2024/01/30 06:12:16;;;;;;;23.67;18.80;;;6.70;99.90;;;;;;5082659;28;20413;-77
2024/01/30 06:14:42;;;;;;;25.57;19.60;;;6.70;99.90;;;;;;5085847;28;20401;-76
2024/01/30 06:17:08;;;;;;;24.13;19.67;;;6.60;99.90;;;;;;5082790;28;20413;-76
2024/01/30 06:19:34;;;;;;;24.17;19.52;;;6.60;99.90;;;;;;5075602;28;20430;-78
2024/01/30 06:21:59;;;;;;;23.70;19.80;;;6.60;99.90;;;;;;5081385;28;20406;-78
2024/01/30 06:24:25;;;;;;;29.05;19.48;;;6.60;99.90;;;;;;5074713;28;20440;-77
2024/01/30 06:26:51;;;;;;;23.77;19.03;;;6.60;99.90;;;;;;5066585;28;20749;-77
2024/01/30 06:29:16;;;;;;;23.25;18.65;;;6.60;99.90;;;;;;5061478;28;20430;-77
2024/01/30 06:31:42;;;;;;;20.57;17.97;;;6.60;99.90;;;;;;5077347;28;20414;-77
2024/01/30 06:34:08;;;;;;;24.27;18.67;;;6.60;99.90;;;;;;5076927;28;20905;-77
2024/01/30 06:36:34;;;;;;;24.10;18.30;;;6.60;99.90;;;;;;5084194;28;20404;-76
2024/01/30 06:39:00;;;;;;;24.83;18.27;;;6.60;99.90;;;;;;5085612;28;20784;-77
2024/01/30 06:41:26;;;;;;;21.97;17.80;;;6.70;99.90;;;;;;5085803;28;20914;-76
2024/01/30 06:43:52;;;;;;;21.37;17.87;;;6.60;99.90;;;;;;5079834;28;20549;-76
2024/01/30 06:46:18;;;;;;;21.83;18.05;;;6.70;99.90;;;;;;5085501;28;21021;-77
2024/01/30 06:48:44;;;;;;;21.55;17.83;;;6.70;99.90;;;;;;5089177;28;20398;-76
2024/01/30 06:51:11;;;;;;;22.07;17.40;;;6.70;99.90;;;;;;5070250;28;20405;-77
2024/01/30 06:53:36;;;;;;;22.70;17.77;;;6.70;99.90;;;;;;5089539;28;20753;-76
2024/01/30 06:56:02;;;;;;;22.63;17.65;;;6.70;99.90;;;;;;5087693;28;20783;-77
2024/01/30 06:58:28;;;;;;;21.40;17.15;;;6.70;99.90;;;;;;5089804;28;20404;-76
2024/01/30 07:00:54;;;;;;;21.03;17.37;;;6.70;99.90;;;;;;5088227;28;20422;-76
2024/01/30 07:03:20;;;;;;;20.13;16.53;;;6.80;99.90;;;;;;5088034;28;20414;-77
2024/01/30 07:05:45;;;;;;;21.63;16.93;;;6.80;99.90;;;;;;5084792;28;20410;-76
2024/01/30 07:08:11;;;;;;;20.85;16.70;;;6.80;99.90;;;;;;5087979;28;20441;-77
2024/01/30 07:10:37;;;;;;;19.60;16.20;;;6.80;99.90;;;;;;5085293;28;20996;-76
2024/01/30 07:13:04;;;;;;;20.48;16.23;;;6.80;99.90;;;;;;5088265;28;20401;-76
2024/01/30 07:15:29;;;;;;;21.63;16.77;;;6.80;99.90;;;;;;5085603;28;20751;-76
2024/01/30 07:17:55;;;;;;;21.10;15.93;;;6.80;99.90;;;;;;5087255;28;20402;-77
2024/01/30 07:20:20;;;;;;;21.23;16.57;;;6.90;99.90;;;;;;5072270;28;20436;-76
2024/01/30 07:22:46;;;;;;;20.08;16.35;;;6.90;99.90;;;;;;5087938;28;20911;-76
2024/01/30 07:25:12;;;;;;;21.45;16.73;;;6.90;99.90;;;;;;5083060;28;20486;-76
2024/01/30 07:27:38;;;;;;;20.77;16.73;;;6.90;99.90;;;;;;5087725;28;20513;-77
2024/01/30 07:30:04;;;;;;;19.02;15.80;;;6.90;99.90;;;;;;5083764;28;20506;-77
2024/01/30 07:32:29;;;;;;;20.95;16.90;;;6.90;99.90;;;;;;5076877;28;20411;-76
2024/01/30 07:34:55;;;;;;;22.17;16.52;;;7.00;99.90;;;;;;5086261;28;20413;-77
2024/01/30 07:37:21;;;;;;;21.03;16.40;;;7.00;99.90;;;;;;5089617;28;20455;-77
2024/01/30 07:39:47;;;;;;;22.08;15.93;;;7.00;99.90;;;;;;5083522;28;20441;-77
2024/01/30 07:42:12;;;;;;;20.48;15.80;;;7.00;99.90;;;;;;5080084;28;20473;-76
2024/01/30 07:44:38;;;;;;;20.80;16.23;;;7.00;99.90;;;;;;5087043;28;20842;-76
2024/01/30 07:47:05;;;;;;;21.27;16.27;;;7.10;99.90;;;;;;5089060;28;20451;-76
2024/01/30 07:49:30;;;;;;;21.77;15.90;;;7.10;99.90;;;;;;5087920;28;20471;-76
2024/01/30 07:51:56;;;;;;;20.93;16.70;;;7.10;99.90;;;;;;5088785;28;20797;-77
2024/01/30 07:54:21;;;;;;;22.00;17.07;;;7.10;99.90;;;;;;5087924;28;20398;-76
2024/01/30 07:56:47;;;;;;;22.17;17.10;;;7.10;99.90;;;;;;5089195;28;21163;-76
2024/01/30 07:59:13;;;;;;;22.87;17.87;;;7.20;99.90;;;;;;5085467;28;20789;-76
2024/01/30 08:01:38;;;;;;;24.17;17.83;;;7.20;99.90;;;;;;5088717;28;20404;-76
2024/01/30 08:04:04;;;;;;;20.80;17.23;;;7.20;99.90;;;;;;5086571;28;20424;-76
2024/01/30 08:06:30;;;;;;;23.35;17.27;;;7.10;99.90;;;;;;5088285;28;20891;-76
2024/01/30 08:08:57;;;;;;;22.85;16.95;;;7.10;99.90;;;;;;5086338;28;20782;-77
2024/01/30 08:11:25;;;;;;;21.00;17.05;;;7.10;99.90;;;;;;5086361;28;20441;-76
2024/01/30 08:13:52;;;;;;;22.98;17.60;;;7.10;99.90;;;;;;5085192;28;20439;-76
2024/01/30 08:16:18;;;;;;;21.65;17.23;;;7.10;99.90;;;;;;5087619;28;20430;-76
2024/01/30 08:18:43;;;;;;;21.13;17.27;;;7.10;99.90;;;;;;5081066;28;20993;-76
2024/01/30 08:21:09;;;;;;;25.37;17.57;;;7.10;99.90;;;;;;5079173;28;20422;-76
2024/01/30 08:23:34;;;;;;;21.67;17.20;;;7.20;99.90;;;;;;5085135;28;20521;-76
2024/01/30 08:26:00;;;;;;;22.07;17.37;;;7.20;99.90;;;;;;5076470;28;20414;-76
2024/01/30 08:28:26;;;;;;;21.88;17.30;;;7.20;99.90;;;;;;5065709;28;20418;-76
2024/01/30 08:30:52;;;;;;;23.27;17.73;;;7.20;99.90;;;;;;5087399;28;20398;-76
2024/01/30 08:33:18;;;;;;;22.38;17.15;;;7.20;99.90;;;;;;5074041;28;20402;-76
2024/01/30 08:35:43;;;;;;;20.83;16.90;;;7.20;99.90;;;;;;5088293;28;20406;-76
2024/01/30 08:38:09;;;;;;;23.95;17.05;;;7.30;99.90;;;;;;5073518;28;20514;-76
2024/01/30 08:40:35;;;;;;;22.85;17.45;;;7.30;99.90;;;;;;5087809;28;20760;-76
2024/01/30 08:43:00;;;;;;;21.97;17.13;;;7.30;99.90;;;;;;5083378;28;20424;-77
2024/01/30 08:45:26;;;;;;;21.93;16.47;;;7.30;99.90;;;;;;5078584;28;20439;-77
2024/01/30 08:47:52;;;;;;;20.58;16.88;;;7.30;99.90;;;;;;5083295;28;20999;-76
2024/01/30 08:50:17;;;;;;;21.37;16.50;;;7.40;99.90;;;;;;5076648;28;20464;-76
2024/01/30 08:52:43;;;;;;;21.58;16.50;;;7.50;99.90;;;;;;5086371;28;20402;-76
2024/01/30 08:55:09;;;;;;;20.05;16.65;;;7.50;99.90;;;;;;5087138;28;20793;-76
2024/01/30 08:57:34;;;;;;;19.83;15.90;;;7.50;99.90;;;;;;5083943;28;20479;-76
2024/01/30 09:00:04;;;;;;;22.27;16.63;;;7.50;99.90;;;;;;5086806;28;20421;-76
2024/01/30 09:02:29;;;;;;;19.20;15.77;;;7.60;99.90;;;;;;5084555;28;20427;-76
2024/01/30 09:04:55;;;;;;;20.63;15.60;;;7.60;99.90;;;;;;5086313;28;20991;-76
2024/01/30 09:07:21;;;;;;;21.85;16.25;;;7.60;99.90;;;;;;5082384;28;20442;-76
2024/01/30 09:09:46;;;;;;;19.17;15.80;;;7.70;99.90;;;;;;5077353;28;20390;-77
2024/01/30 09:12:12;;;;;;;22.55;16.52;;;7.70;99.90;;;;;;5083898;28;20404;-76
2024/01/30 09:14:39;;;;;;;21.83;15.83;;;7.70;99.90;;;;;;5086236;28;20858;-76
2024/01/30 09:17:05;;;;;;;20.35;15.20;;;7.80;99.90;;;;;;5083187;28;20408;-77
2024/01/30 09:19:31;;;;;;;19.30;15.05;;;7.90;99.90;;;;;;5086181;28;20860;-77
2024/01/30 09:21:56;;;;;;;19.17;15.10;;;7.90;99.90;;;;;;5081497;28;20435;-76
2024/01/30 09:24:22;;;;;;;19.20;14.80;;;8.00;99.90;;;;;;5086047;28;20876;-76
2024/01/30 09:26:48;;;;;;;19.60;14.97;;;8.00;99.90;;;;;;5082539;28;20391;-76
2024/01/30 09:29:13;;;;;;;18.38;14.52;;;8.10;99.90;;;;;;5084633;28;20406;-76
2024/01/30 09:31:39;;;;;;;19.13;14.20;;;8.10;99.90;;;;;;5080088;28;20404;-76
2024/01/30 09:34:04;;;;;;;18.87;14.27;;;8.20;99.90;;;;;;5077508;28;20394;-77
2024/01/30 09:36:30;;;;;;;16.87;13.83;;;8.30;99.90;;;;;;5083390;28;20905;-76
2024/01/30 09:38:55;;;;;;;18.40;14.23;;;8.30;99.90;;;;;;5085599;28;20406;-76
2024/01/30 09:41:24;;;;;;;18.05;13.90;;;8.30;99.90;;;;;;5082634;28;20411;-77
2024/01/30 09:43:51;;;;;;;18.48;13.48;;;8.40;99.90;;;;;;5085460;28;20768;-76
2024/01/30 09:46:21;;;;;;;18.50;13.77;;;8.40;99.90;;;;;;5083051;28;20459;-76
2024/01/30 09:48:47;;;;;;;20.40;14.10;;;8.50;99.90;;;;;;5076146;28;20392;-76
2024/01/30 09:51:15;;;;;;;18.20;13.47;;;8.50;99.90;;;;;;5069857;28;20410;-76
2024/01/30 09:53:43;;;;;;;17.15;13.15;;;8.60;99.90;;;;;;5085394;28;20406;-76
2024/01/30 09:56:09;;;;;;;16.48;12.63;;;8.60;99.80;;;;;;5078025;28;20435;-76
2024/01/30 09:58:34;;;;;;;18.07;12.87;;;8.70;99.80;;;;;;5077780;28;21253;-76
2024/01/30 10:01:00;;;;;;;15.97;13.00;;;8.80;99.90;;;;;;5081371;28;20430;-77
2024/01/30 10:03:26;;;;;;;17.35;12.48;;;8.90;99.80;;;;;;5084749;28;20764;-76
2024/01/30 10:05:53;;;;;;;16.25;12.70;;;9.00;99.80;;;;;;5080888;28;20406;-76
2024/01/30 10:08:19;;;;;;;17.30;12.67;;;9.10;99.60;;;;;;5084386;28;20455;-76
2024/01/30 10:10:49;;;;;;;16.60;12.30;;;9.10;99.40;;;;;;5070430;28;20406;-77
2024/01/30 10:13:15;;;;;;;14.80;11.70;;;9.20;99.20;;;;;;5083557;28;20402;-76
2024/01/30 10:15:41;;;;;;;16.10;12.05;;;9.30;99.10;;;;;;5081480;28;20401;-76
2024/01/30 10:18:08;;;;;;;16.52;11.95;;;9.40;98.90;;;;;;5086161;28;20446;-76
2024/01/30 10:20:34;;;;;;;18.17;12.03;;;9.40;98.60;;;;;;5079527;28;20441;-76
2024/01/30 10:22:59;;;;;;;17.03;12.17;;;9.40;98.20;;;;;;5086728;28;20413;-76
2024/01/30 10:25:26;;;;;;;17.70;11.97;;;9.40;98.10;;;;;;5080851;28;20414;-77
2024/01/30 10:27:55;;;;;;;17.08;12.05;;;9.50;98.20;;;;;;5078178;28;20502;-77
2024/01/30 10:30:22;;;;;;;17.25;11.93;;;9.50;98.10;;;;;;5075598;28;20417;-77
2024/01/30 10:32:48;;;;;;;15.88;12.00;;;9.60;97.90;;;;;;5076678;28;20407;-77
2024/01/30 10:35:14;;;;;;;15.47;11.80;;;9.60;97.90;;;;;;5090785;28;20405;-77
2024/01/30 10:37:39;;;;;;;17.23;11.63;;;9.60;98.00;;;;;;5090076;28;20397;-77
2024/01/30 10:40:07;;;;;;;16.83;11.55;;;9.70;98.20;;;;;;5089119;28;20437;-77
2024/01/30 10:42:36;;;;;;;16.40;11.88;;;9.80;97.90;;;;;;5089053;28;20416;-77
2024/01/30 10:45:04;;;;;;;17.73;11.73;;;9.90;97.60;;;;;;5065968;28;20397;-77
2024/01/30 10:47:30;;;;;;;15.37;12.23;;;9.90;97.40;;;;;;5088625;28;20474;-77
2024/01/30 10:49:56;;;;;;;16.83;11.73;;;9.90;97.20;;;;;;5071229;28;20406;-76
2024/01/30 10:52:26;;;;;;;18.23;12.63;;;9.90;97.00;;;;;;5071019;28;20404;-77
2024/01/30 10:54:53;;;;;;;16.73;11.30;;;9.90;96.90;;;;;;5066977;28;20394;-77
2024/01/30 10:57:21;;;;;;;17.63;11.82;;;9.90;96.90;;;;;;5085940;28;20430;-77
2024/01/30 10:59:47;;;;;;;16.73;12.13;;;9.90;96.80;;;;;;5087966;28;20448;-77
2024/01/30 11:02:14;;;;;;;18.90;12.23;;;9.90;96.80;;;;;;5086081;28;20394;-77
2024/01/30 11:04:43;;;;;;;15.48;12.25;;;9.90;96.80;;;;;;5088713;28;20477;-77
2024/01/30 11:07:17;;;;;;;17.80;11.97;;;9.90;96.80;;;;;;5086189;28;20916;-77
2024/01/30 11:09:54;;;;;;;17.75;11.63;;;9.90;96.80;;;;;;5079575;28;20408;-77
2024/01/30 11:12:26;;;;;;;14.65;10.85;;;9.90;96.80;;;;;;5085280;28;20398;-77
2024/01/30 11:15:09;;;;;;;16.80;11.70;;;9.90;96.70;;;;;;5087930;28;20406;-77
2024/01/30 11:17:41;;;;;;;17.30;11.93;;;9.90;96.70;;;;;;5066885;28;20489;-77
2024/01/30 11:20:10;;;;;;;16.73;11.43;;;9.90;96.70;;;;;;5085510;28;20428;-77
2024/01/30 11:22:36;;;;;;;15.95;12.15;;;9.90;96.90;;;;;;5088128;28;20394;-77
2024/01/30 11:25:03;;;;;;;16.80;11.47;;;9.90;96.60;;;;;;5085327;28;21030;-77
2024/01/30 11:27:31;;;;;;;16.67;11.43;;;9.90;96.60;;;;;;5086316;28;20899;-77
2024/01/30 11:30:02;;;;;;;17.10;11.93;;;9.90;96.60;;;;;;5073894;28;20430;-77
2024/01/30 11:32:28;;;;;;;17.60;11.90;;;9.90;96.60;;;;;;5079140;28;20404;-76
2024/01/30 11:34:55;;;;;;;18.37;11.77;;;10.00;96.80;;;;;;5085533;28;20405;-77
2024/01/30 11:37:24;;;;;;;14.98;11.70;;;10.00;96.50;;;;;;5088731;28;20910;-77
2024/01/30 11:39:51;;;;;;;17.08;12.57;;;10.00;96.40;;;;;;5075685;28;20437;-77
2024/01/30 11:42:17;;;;;;;17.23;11.93;;;10.00;96.20;;;;;;5089067;28;20403;-77
2024/01/30 11:44:47;;;;;;;16.57;11.50;;;10.00;96.20;;;;;;5087930;28;20403;-77
2024/01/30 11:47:12;;;;;;;19.80;12.82;;;10.00;96.30;;;;;;5088810;28;20523;-77
2024/01/30 11:49:38;;;;;;;17.38;11.60;;;10.00;96.10;;;;;;5084154;28;20491;-77
2024/01/30 11:52:04;;;;;;;17.45;11.65;;;10.00;96.10;;;;;;5081016;28;20409;-77
2024/01/30 11:54:30;;;;;;;16.88;11.15;;;10.00;96.00;;;;;;5087550;28;20398;-77
2024/01/30 11:56:56;;;;;;;17.80;10.53;;;10.00;95.80;;;;;;5088491;28;20402;-77
2024/01/30 11:59:21;;;;;;;13.77;9.20;;;10.00;95.70;;;;;;5087350;28;20792;-77
2024/01/30 12:01:47;;;;;;;14.67;8.50;;;10.00;95.20;;;;;;5088917;28;20401;-77
2024/01/30 12:04:13;;;;;;;16.90;8.50;;;10.10;94.60;;;;;;5085435;28;20479;-76
2024/01/30 12:06:39;;;;;;;15.77;8.40;;;10.10;94.10;;;;;;5087831;28;20419;-77
2024/01/30 12:09:05;;;;;;;15.77;7.75;;;10.10;93.70;;;;;;5084329;28;20490;-77
2024/01/30 12:11:31;;;;;;;14.70;7.50;;;10.10;93.70;;;;;;5075675;28;20454;-77
2024/01/30 12:13:57;;;;;;;14.17;7.30;;;10.10;93.60;;;;;;5082162;28;20467;-77
2024/01/30 12:16:23;;;;;;;10.93;6.50;;;10.10;93.00;;;;;;5086288;28;20434;-77
2024/01/30 12:18:48;;;;;;;13.32;6.32;;;10.10;92.50;;;;;;5083940;28;20873;-77
2024/01/30 12:21:20;;;;;;;12.90;5.87;;;10.00;92.00;;;;;;5085223;28;20511;-77
2024/01/30 12:23:45;;;;;;;10.40;5.20;;;10.10;91.30;;;;;;5082147;28;20422;-77
2024/01/30 12:26:12;;;;;;;8.27;3.90;;;10.10;91.10;;;;;;5085372;28;20873;-77
2024/01/30 12:28:47;;;;;;;9.10;3.90;;;10.10;90.20;;;;;;5078680;28;20533;-77
2024/01/30 12:31:13;;;;;;;8.35;3.42;;;10.10;89.50;;;;;;5068117;28;20411;-77